Island Lookout — WDF6311 — position and weather

sailwx.info

Track history (hours):
 
Tides and Currents Weather Stations Pressure Air Temp Water Temp Dewpoint Dewpoint Depression Visibility Wind Speed Wind Dir Waves Ship Positions

Island Lookout

Owner: Stevens Towing Company Inc., Yonges Island, SC. More information available from US FCC via Universal Licensing System and Coast Guard Vessel Documentation Center.

Last reported at 2015-Sep-02 12:34 UTC. Time now 2015-Sep-02 12:50 UTC.
Position N 39°14' W 076°34'.

Length 22 m; draft 2.9 m.

Type: Towing. MMSI: 367472930.

Date/timePositionNaut miles runAvg speedWind from/ knotsBaromVisibWave heightAir tempDewpointWater temp
2015-Sep-02 12:34N 39°14' W 076°34'0 0.0
2015-Sep-02 11:34N 39°14' W 076°34'3 2.9
2015-Sep-02 10:33N 39°13' W 076°30'0 0.4
2015-Sep-02 09:34N 39°13' W 076°30'0 0.0
2015-Sep-02 08:34N 39°13' W 076°30'0 0.0
2015-Sep-02 07:34N 39°13' W 076°30'0 0.0
2015-Sep-02 06:34N 39°13' W 076°30'0 0.0
2015-Sep-02 05:33N 39°13' W 076°30'0 0.0
2015-Sep-02 04:33N 39°13' W 076°30'0 0.0
2015-Sep-02 03:33N 39°13' W 076°30'0 0.0
2015-Sep-02 02:33N 39°13' W 076°30'0 0.0
2015-Sep-02 01:33N 39°13' W 076°30'0 0.0
2015-Sep-02 00:33N 39°13' W 076°30'0 0.0
2015-Sep-01 18:22N 39°13' W 076°30'3 4.3
2015-Sep-01 17:33N 39°11' W 076°27'6 5.8
2015-Sep-01 16:33N 39°05' W 076°24'6 5.6
2015-Sep-01 15:32N 38°60' W 076°23'27 6.4
2015-Sep-01 11:21N 38°33' W 076°28'6 6.8
2015-Sep-01 10:29N 38°28' W 076°25'149 3.3
2015-Aug-30 13:28N 35°59' W 076°30'27 2.6
2015-Aug-30 03:08N 35°39' W 076°07'3 4.3
2015-Aug-30 02:32N 35°38' W 076°10'  
2015-Aug-26 01:25N 34°54' W 076°41'5 5.4
2015-Aug-26 00:33N 34°49' W 076°41'5 4.8
2015-Aug-25 23:33N 34°44' W 076°41'2 1.8
2015-Aug-25 22:33N 34°46' W 076°41'2 2.4
2015-Aug-25 21:34N 34°48' W 076°41'0 0.0
2015-Aug-25 20:33N 34°48' W 076°41'0 0.0
2015-Aug-24 18:33N 34°48' W 076°41'2 2.3
2015-Aug-24 17:33N 34°46' W 076°41'3 3.3
2015-Aug-24 16:33N 34°43' W 076°42'0 0.0
2015-Aug-24 15:33N 34°43' W 076°42'0 0.1
2015-Aug-24 14:34N 34°43' W 076°42'0 0.1
2015-Aug-24 13:34N 34°43' W 076°42'0 0.0
2015-Aug-24 12:34N 34°43' W 076°42'0 0.0
2015-Aug-24 11:34N 34°43' W 076°42'0 0.0
2015-Aug-24 10:33N 34°43' W 076°42'0 0.0
2015-Aug-24 09:34N 34°43' W 076°42'0 0.0
2015-Aug-24 08:33N 34°43' W 076°42'0 0.0
2015-Aug-24 07:33N 34°43' W 076°42'0 0.0
2015-Aug-24 06:34N 34°43' W 076°42'0 0.0
2015-Aug-24 05:33N 34°43' W 076°42'0 0.0
2015-Aug-24 04:34N 34°43' W 076°42'0 0.0
2015-Aug-24 03:34N 34°43' W 076°42'0 0.0
2015-Aug-24 02:34N 34°43' W 076°42'0 0.0
2015-Aug-24 01:33N 34°43' W 076°42'0 0.0
2015-Aug-24 00:34N 34°43' W 076°42'0 0.0
2015-Aug-23 23:34N 34°43' W 076°42'0 0.0
2015-Aug-23 22:34N 34°43' W 076°42'0 0.0
2015-Aug-23 21:33N 34°43' W 076°42'0 0.0
2015-Aug-23 20:34N 34°43' W 076°42'0 0.0
2015-Aug-23 19:34N 34°43' W 076°42'0 0.0
2015-Aug-23 18:34N 34°43' W 076°42'0 0.0
2015-Aug-23 17:34N 34°43' W 076°42'0 0.0
2015-Aug-23 16:34N 34°43' W 076°42'0 0.0
2015-Aug-23 15:33N 34°43' W 076°42'0 0.2
2015-Aug-23 14:33N 34°43' W 076°42'0 0.0
2015-Aug-23 13:34N 34°43' W 076°42'0 0.0
2015-Aug-23 12:34N 34°43' W 076°42'  
Track history (hours):
 
Tides and Currents Weather Stations Pressure Air Temp Water Temp Dewpoint Dewpoint Depression Visibility Wind Speed Wind Dir Waves Ship Positions

Island Lookout

Owner: Stevens Towing Company Inc., Yonges Island, SC. More information available from US FCC via Universal Licensing System and Coast Guard Vessel Documentation Center.

Last reported at 2015-Sep-02 12:34 UTC. Time now 2015-Sep-02 12:50 UTC.
Position N 39°14' W 076°34'.

Length 22 m; draft 2.9 m.

Type: Towing. MMSI: 367472930.

Date/timePositionNaut miles runAvg speedWind from/ knotsBaromVisibWave heightAir tempDewpointWater temp
2015-Sep-02 12:34N 39°14' W 076°34'0 0.0
2015-Sep-02 11:34N 39°14' W 076°34'3 2.9
2015-Sep-02 10:33N 39°13' W 076°30'0 0.4
2015-Sep-02 09:34N 39°13' W 076°30'0 0.0
2015-Sep-02 08:34N 39°13' W 076°30'0 0.0
2015-Sep-02 07:34N 39°13' W 076°30'0 0.0
2015-Sep-02 06:34N 39°13' W 076°30'0 0.0
2015-Sep-02 05:33N 39°13' W 076°30'0 0.0
2015-Sep-02 04:33N 39°13' W 076°30'0 0.0
2015-Sep-02 03:33N 39°13' W 076°30'0 0.0
2015-Sep-02 02:33N 39°13' W 076°30'0 0.0
2015-Sep-02 01:33N 39°13' W 076°30'0 0.0
2015-Sep-02 00:33N 39°13' W 076°30'0 0.0
2015-Sep-01 18:22N 39°13' W 076°30'3 4.3
2015-Sep-01 17:33N 39°11' W 076°27'6 5.8
2015-Sep-01 16:33N 39°05' W 076°24'6 5.6
2015-Sep-01 15:32N 38°60' W 076°23'27 6.4
2015-Sep-01 11:21N 38°33' W 076°28'6 6.8
2015-Sep-01 10:29N 38°28' W 076°25'149 3.3
2015-Aug-30 13:28N 35°59' W 076°30'27 2.6
2015-Aug-30 03:08N 35°39' W 076°07'3 4.3
2015-Aug-30 02:32N 35°38' W 076°10'  
2015-Aug-26 01:25N 34°54' W 076°41'5 5.4
2015-Aug-26 00:33N 34°49' W 076°41'5 4.8
2015-Aug-25 23:33N 34°44' W 076°41'2 1.8
2015-Aug-25 22:33N 34°46' W 076°41'2 2.4
2015-Aug-25 21:34N 34°48' W 076°41'0 0.0
2015-Aug-25 20:33N 34°48' W 076°41'0 0.0
2015-Aug-24 18:33N 34°48' W 076°41'2 2.3
2015-Aug-24 17:33N 34°46' W 076°41'3 3.3
2015-Aug-24 16:33N 34°43' W 076°42'0 0.0
2015-Aug-24 15:33N 34°43' W 076°42'0 0.1
2015-Aug-24 14:34N 34°43' W 076°42'0 0.1
2015-Aug-24 13:34N 34°43' W 076°42'0 0.0
2015-Aug-24 12:34N 34°43' W 076°42'0 0.0
2015-Aug-24 11:34N 34°43' W 076°42'0 0.0
2015-Aug-24 10:33N 34°43' W 076°42'0 0.0
2015-Aug-24 09:34N 34°43' W 076°42'0 0.0
2015-Aug-24 08:33N 34°43' W 076°42'0 0.0
2015-Aug-24 07:33N 34°43' W 076°42'0 0.0
2015-Aug-24 06:34N 34°43' W 076°42'0 0.0
2015-Aug-24 05:33N 34°43' W 076°42'0 0.0
2015-Aug-24 04:34N 34°43' W 076°42'0 0.0
2015-Aug-24 03:34N 34°43' W 076°42'0 0.0
2015-Aug-24 02:34N 34°43' W 076°42'0 0.0
2015-Aug-24 01:33N 34°43' W 076°42'0 0.0
2015-Aug-24 00:34N 34°43' W 076°42'0 0.0
2015-Aug-23 23:34N 34°43' W 076°42'0 0.0
2015-Aug-23 22:34N 34°43' W 076°42'0 0.0
2015-Aug-23 21:33N 34°43' W 076°42'0 0.0
2015-Aug-23 20:34N 34°43' W 076°42'0 0.0
2015-Aug-23 19:34N 34°43' W 076°42'0 0.0
2015-Aug-23 18:34N 34°43' W 076°42'0 0.0
2015-Aug-23 17:34N 34°43' W 076°42'0 0.0
2015-Aug-23 16:34N 34°43' W 076°42'0 0.0
2015-Aug-23 15:33N 34°43' W 076°42'0 0.2
2015-Aug-23 14:33N 34°43' W 076°42'0 0.0
2015-Aug-23 13:34N 34°43' W 076°42'0 0.0
2015-Aug-23 12:34N 34°43' W 076°42'  

Dump ship's entire track history